sensor_id;sensor_type;location;lat;lon;timestamp;P1;durP1;ratioP1;P2;durP2;ratioP2
33170;SDS011;19535;50.672;4.206;2022-10-16T00:00:53;11.48;;;10.57;;
33170;SDS011;19535;50.672;4.206;2022-10-16T00:03:20;11.45;;;10.55;;
33170;SDS011;19535;50.672;4.206;2022-10-16T00:05:53;11.93;;;11.00;;
33170;SDS011;19535;50.672;4.206;2022-10-16T00:08:20;10.07;;;9.27;;
33170;SDS011;19535;50.672;4.206;2022-10-16T00:10:46;10.95;;;10.15;;
33170;SDS011;19535;50.672;4.206;2022-10-16T00:13:13;10.13;;;9.32;;
33170;SDS011;19535;50.672;4.206;2022-10-16T00:15:40;10.32;;;9.52;;
33170;SDS011;19535;50.672;4.206;2022-10-16T00:18:09;10.45;;;9.65;;
33170;SDS011;19535;50.672;4.206;2022-10-16T00:20:36;9.80;;;9.00;;
33170;SDS011;19535;50.672;4.206;2022-10-16T00:23:03;10.02;;;9.23;;
33170;SDS011;19535;50.672;4.206;2022-10-16T00:25:31;36.28;;;32.70;;
33170;SDS011;19535;50.672;4.206;2022-10-16T00:27:59;51.00;;;46.22;;
33170;SDS011;19535;50.672;4.206;2022-10-16T00:30:26;43.13;;;39.03;;
33170;SDS011;19535;50.672;4.206;2022-10-16T00:32:54;35.25;;;32.25;;
33170;SDS011;19535;50.672;4.206;2022-10-16T00:35:21;29.90;;;27.42;;
33170;SDS011;19535;50.672;4.206;2022-10-16T00:37:48;24.40;;;22.40;;
33170;SDS011;19535;50.672;4.206;2022-10-16T00:40:14;20.40;;;18.80;;
33170;SDS011;19535;50.672;4.206;2022-10-16T00:42:41;20.42;;;18.83;;
33170;SDS011;19535;50.672;4.206;2022-10-16T00:45:08;18.75;;;17.25;;
33170;SDS011;19535;50.672;4.206;2022-10-16T00:47:39;17.35;;;15.95;;
33170;SDS011;19535;50.672;4.206;2022-10-16T00:50:13;16.55;;;15.25;;
33170;SDS011;19535;50.672;4.206;2022-10-16T00:52:56;16.20;;;15.00;;
33170;SDS011;19535;50.672;4.206;2022-10-16T00:55:24;16.02;;;14.82;;
33170;SDS011;19535;50.672;4.206;2022-10-16T00:57:50;14.63;;;13.52;;
33170;SDS011;19535;50.672;4.206;2022-10-16T01:00:19;14.50;;;13.40;;
33170;SDS011;19535;50.672;4.206;2022-10-16T01:02:54;15.27;;;14.02;;
33170;SDS011;19535;50.672;4.206;2022-10-16T01:05:23;13.48;;;12.48;;
33170;SDS011;19535;50.672;4.206;2022-10-16T01:13:07;13.75;;;12.75;;
33170;SDS011;19535;50.672;4.206;2022-10-16T01:15:53;13.00;;;12.00;;
33170;SDS011;19535;50.672;4.206;2022-10-16T01:18:41;12.57;;;11.57;;
33170;SDS011;19535;50.672;4.206;2022-10-16T01:23:47;12.18;;;11.27;;
33170;SDS011;19535;50.672;4.206;2022-10-16T01:26:29;11.88;;;10.98;;
33170;SDS011;19535;50.672;4.206;2022-10-16T01:29:09;12.77;;;11.77;;
33170;SDS011;19535;50.672;4.206;2022-10-16T01:31:44;11.18;;;10.23;;
33170;SDS011;19535;50.672;4.206;2022-10-16T01:34:15;11.25;;;10.45;;
33170;SDS011;19535;50.672;4.206;2022-10-16T01:36:51;11.60;;;10.70;;
33170;SDS011;19535;50.672;4.206;2022-10-16T01:39:22;11.32;;;10.43;;
33170;SDS011;19535;50.672;4.206;2022-10-16T01:41:59;11.05;;;10.15;;
33170;SDS011;19535;50.672;4.206;2022-10-16T01:46:57;10.68;;;9.88;;
33170;SDS011;19535;50.672;4.206;2022-10-16T01:49:26;10.32;;;9.55;;
33170;SDS011;19535;50.672;4.206;2022-10-16T01:51:56;9.93;;;9.13;;
33170;SDS011;19535;50.672;4.206;2022-10-16T01:54:26;10.93;;;10.13;;
33170;SDS011;19535;50.672;4.206;2022-10-16T01:56:55;9.57;;;8.87;;
33170;SDS011;19535;50.672;4.206;2022-10-16T01:59:23;9.30;;;8.60;;
33170;SDS011;19535;50.672;4.206;2022-10-16T02:01:54;9.60;;;8.90;;
33170;SDS011;19535;50.672;4.206;2022-10-16T02:04:28;9.73;;;9.02;;
33170;SDS011;19535;50.672;4.206;2022-10-16T02:06:59;9.70;;;9.00;;
33170;SDS011;19535;50.672;4.206;2022-10-16T02:09:26;9.82;;;9.02;;
33170;SDS011;19535;50.672;4.206;2022-10-16T02:11:54;8.90;;;8.30;;
33170;SDS011;19535;50.672;4.206;2022-10-16T02:14:23;8.95;;;8.32;;
33170;SDS011;19535;50.672;4.206;2022-10-16T02:16:51;8.95;;;8.25;;
33170;SDS011;19535;50.672;4.206;2022-10-16T02:19:18;9.50;;;8.80;;
33170;SDS011;19535;50.672;4.206;2022-10-16T02:21:50;9.00;;;8.40;;
33170;SDS011;19535;50.672;4.206;2022-10-16T02:27:24;8.32;;;7.72;;
33170;SDS011;19535;50.672;4.206;2022-10-16T02:29:53;8.95;;;8.25;;
33170;SDS011;19535;50.672;4.206;2022-10-16T02:32:27;8.93;;;8.27;;
33170;SDS011;19535;50.672;4.206;2022-10-16T02:34:56;8.40;;;7.80;;
33170;SDS011;19535;50.672;4.206;2022-10-16T02:37:24;8.00;;;7.40;;
33170;SDS011;19535;50.672;4.206;2022-10-16T02:39:51;7.90;;;7.30;;
33170;SDS011;19535;50.672;4.206;2022-10-16T02:42:18;8.00;;;7.40;;
33170;SDS011;19535;50.672;4.206;2022-10-16T02:44:45;7.85;;;7.25;;
33170;SDS011;19535;50.672;4.206;2022-10-16T02:47:12;8.15;;;7.55;;
33170;SDS011;19535;50.672;4.206;2022-10-16T02:49:38;7.50;;;7.00;;
33170;SDS011;19535;50.672;4.206;2022-10-16T02:52:05;7.97;;;7.38;;
33170;SDS011;19535;50.672;4.206;2022-10-16T02:54:32;7.38;;;6.80;;
33170;SDS011;19535;50.672;4.206;2022-10-16T02:56:59;7.30;;;6.80;;
33170;SDS011;19535;50.672;4.206;2022-10-16T02:59:25;7.07;;;6.57;;
33170;SDS011;19535;50.672;4.206;2022-10-16T03:01:52;7.78;;;7.18;;
33170;SDS011;19535;50.672;4.206;2022-10-16T03:04:19;7.35;;;6.85;;
33170;SDS011;19535;50.672;4.206;2022-10-16T03:06:45;7.75;;;7.15;;
33170;SDS011;19535;50.672;4.206;2022-10-16T03:09:12;7.22;;;6.72;;
33170;SDS011;19535;50.672;4.206;2022-10-16T03:11:39;7.28;;;6.75;;
33170;SDS011;19535;50.672;4.206;2022-10-16T03:14:06;7.78;;;7.18;;
33170;SDS011;19535;50.672;4.206;2022-10-16T03:16:33;7.30;;;6.80;;
33170;SDS011;19535;50.672;4.206;2022-10-16T03:19:00;6.90;;;6.40;;
33170;SDS011;19535;50.672;4.206;2022-10-16T03:21:27;7.38;;;6.78;;
33170;SDS011;19535;50.672;4.206;2022-10-16T03:23:53;6.72;;;6.22;;
33170;SDS011;19535;50.672;4.206;2022-10-16T03:26:20;6.93;;;6.43;;
33170;SDS011;19535;50.672;4.206;2022-10-16T03:28:47;6.43;;;5.97;;
33170;SDS011;19535;50.672;4.206;2022-10-16T03:31:14;6.25;;;5.75;;
33170;SDS011;19535;50.672;4.206;2022-10-16T03:33:40;6.90;;;6.40;;
33170;SDS011;19535;50.672;4.206;2022-10-16T03:36:07;6.07;;;5.68;;
33170;SDS011;19535;50.672;4.206;2022-10-16T03:38:34;6.00;;;5.60;;
33170;SDS011;19535;50.672;4.206;2022-10-16T03:41:01;6.40;;;5.90;;
33170;SDS011;19535;50.672;4.206;2022-10-16T03:43:27;6.30;;;5.90;;
33170;SDS011;19535;50.672;4.206;2022-10-16T03:45:54;5.85;;;5.45;;
33170;SDS011;19535;50.672;4.206;2022-10-16T03:48:21;6.25;;;5.85;;
33170;SDS011;19535;50.672;4.206;2022-10-16T03:50:48;6.43;;;5.93;;
33170;SDS011;19535;50.672;4.206;2022-10-16T03:53:14;6.03;;;5.60;;
33170;SDS011;19535;50.672;4.206;2022-10-16T03:55:42;6.25;;;5.85;;
33170;SDS011;19535;50.672;4.206;2022-10-16T03:58:09;6.03;;;5.57;;
33170;SDS011;19535;50.672;4.206;2022-10-16T04:00:40;5.78;;;5.38;;
33170;SDS011;19535;50.672;4.206;2022-10-16T04:03:10;5.82;;;5.43;;
33170;SDS011;19535;50.672;4.206;2022-10-16T04:05:37;6.50;;;6.00;;
33170;SDS011;19535;50.672;4.206;2022-10-16T04:08:04;5.65;;;5.25;;
33170;SDS011;19535;50.672;4.206;2022-10-16T04:10:31;5.90;;;5.50;;
33170;SDS011;19535;50.672;4.206;2022-10-16T04:12:58;5.55;;;5.15;;
33170;SDS011;19535;50.672;4.206;2022-10-16T04:15:25;5.57;;;5.18;;
33170;SDS011;19535;50.672;4.206;2022-10-16T04:17:52;5.50;;;5.10;;
33170;SDS011;19535;50.672;4.206;2022-10-16T04:20:19;5.60;;;5.20;;
33170;SDS011;19535;50.672;4.206;2022-10-16T04:22:45;5.45;;;5.05;;
33170;SDS011;19535;50.672;4.206;2022-10-16T04:25:12;5.15;;;4.78;;
33170;SDS011;19535;50.672;4.206;2022-10-16T04:27:39;5.20;;;4.80;;
33170;SDS011;19535;50.672;4.206;2022-10-16T04:30:11;5.60;;;5.20;;
33170;SDS011;19535;50.672;4.206;2022-10-16T04:32:38;5.50;;;5.10;;
33170;SDS011;19535;50.672;4.206;2022-10-16T04:35:04;4.75;;;4.45;;
33170;SDS011;19535;50.672;4.206;2022-10-16T04:37:31;5.18;;;4.78;;
33170;SDS011;19535;50.672;4.206;2022-10-16T04:39:58;4.57;;;4.28;;
33170;SDS011;19535;50.672;4.206;2022-10-16T04:42:25;5.53;;;5.05;;
33170;SDS011;19535;50.672;4.206;2022-10-16T04:44:52;5.30;;;4.90;;
33170;SDS011;19535;50.672;4.206;2022-10-16T04:47:18;5.63;;;5.13;;
33170;SDS011;19535;50.672;4.206;2022-10-16T04:49:45;4.88;;;4.47;;
33170;SDS011;19535;50.672;4.206;2022-10-16T04:52:12;4.80;;;4.50;;
33170;SDS011;19535;50.672;4.206;2022-10-16T04:54:38;4.80;;;4.50;;
33170;SDS011;19535;50.672;4.206;2022-10-16T04:57:05;5.30;;;4.90;;
33170;SDS011;19535;50.672;4.206;2022-10-16T04:59:32;4.85;;;4.55;;
33170;SDS011;19535;50.672;4.206;2022-10-16T05:01:59;4.90;;;4.60;;
33170;SDS011;19535;50.672;4.206;2022-10-16T05:04:25;4.47;;;4.18;;
33170;SDS011;19535;50.672;4.206;2022-10-16T05:06:52;4.35;;;4.05;;
33170;SDS011;19535;50.672;4.206;2022-10-16T05:09:19;4.50;;;4.20;;
33170;SDS011;19535;50.672;4.206;2022-10-16T05:11:46;4.30;;;4.00;;
33170;SDS011;19535;50.672;4.206;2022-10-16T05:14:13;4.53;;;4.22;;
33170;SDS011;19535;50.672;4.206;2022-10-16T05:16:40;4.93;;;4.53;;
33170;SDS011;19535;50.672;4.206;2022-10-16T05:19:06;4.38;;;4.03;;
33170;SDS011;19535;50.672;4.206;2022-10-16T05:21:53;4.45;;;4.15;;
33170;SDS011;19535;50.672;4.206;2022-10-16T05:24:20;4.55;;;4.25;;
33170;SDS011;19535;50.672;4.206;2022-10-16T05:26:47;4.55;;;4.25;;
33170;SDS011;19535;50.672;4.206;2022-10-16T05:29:14;4.45;;;4.13;;
33170;SDS011;19535;50.672;4.206;2022-10-16T05:31:40;4.20;;;3.90;;
33170;SDS011;19535;50.672;4.206;2022-10-16T05:34:07;4.15;;;3.85;;
33170;SDS011;19535;50.672;4.206;2022-10-16T05:36:34;4.55;;;4.22;;
33170;SDS011;19535;50.672;4.206;2022-10-16T05:39:01;3.88;;;3.63;;
33170;SDS011;19535;50.672;4.206;2022-10-16T05:41:28;4.28;;;3.97;;
33170;SDS011;19535;50.672;4.206;2022-10-16T05:43:55;4.18;;;3.88;;
33170;SDS011;19535;50.672;4.206;2022-10-16T05:46:22;4.05;;;3.75;;
33170;SDS011;19535;50.672;4.206;2022-10-16T05:48:51;3.95;;;3.65;;
33170;SDS011;19535;50.672;4.206;2022-10-16T05:51:19;4.70;;;4.30;;
33170;SDS011;19535;50.672;4.206;2022-10-16T05:53:48;3.83;;;3.53;;
33170;SDS011;19535;50.672;4.206;2022-10-16T05:56:15;3.67;;;3.47;;
33170;SDS011;19535;50.672;4.206;2022-10-16T05:58:42;3.72;;;3.42;;
33170;SDS011;19535;50.672;4.206;2022-10-16T06:01:11;3.63;;;3.42;;
33170;SDS011;19535;50.672;4.206;2022-10-16T06:03:40;3.90;;;3.55;;
33170;SDS011;19535;50.672;4.206;2022-10-16T06:06:08;4.15;;;3.60;;
33170;SDS011;19535;50.672;4.206;2022-10-16T06:08:40;3.47;;;3.28;;
33170;SDS011;19535;50.672;4.206;2022-10-16T06:11:08;3.88;;;3.58;;
33170;SDS011;19535;50.672;4.206;2022-10-16T06:13:36;3.92;;;3.63;;
33170;SDS011;19535;50.672;4.206;2022-10-16T06:16:03;3.85;;;3.42;;
33170;SDS011;19535;50.672;4.206;2022-10-16T06:18:30;3.80;;;3.55;;
33170;SDS011;19535;50.672;4.206;2022-10-16T06:20:57;4.05;;;3.75;;
33170;SDS011;19535;50.672;4.206;2022-10-16T06:23:25;3.38;;;3.17;;
33170;SDS011;19535;50.672;4.206;2022-10-16T06:25:52;3.40;;;3.20;;
33170;SDS011;19535;50.672;4.206;2022-10-16T06:28:18;3.50;;;3.30;;
33170;SDS011;19535;50.672;4.206;2022-10-16T06:30:45;3.35;;;3.15;;
33170;SDS011;19535;50.672;4.206;2022-10-16T06:33:12;3.15;;;2.95;;
33170;SDS011;19535;50.672;4.206;2022-10-16T06:35:39;3.47;;;3.28;;
33170;SDS011;19535;50.672;4.206;2022-10-16T06:38:06;3.42;;;3.22;;
33170;SDS011;19535;50.672;4.206;2022-10-16T06:40:33;3.45;;;3.15;;
33170;SDS011;19535;50.672;4.206;2022-10-16T06:42:59;2.97;;;2.78;;
33170;SDS011;19535;50.672;4.206;2022-10-16T06:45:26;3.30;;;3.05;;
33170;SDS011;19535;50.672;4.206;2022-10-16T06:47:53;3.25;;;3.05;;
33170;SDS011;19535;50.672;4.206;2022-10-16T06:50:20;3.55;;;3.25;;
33170;SDS011;19535;50.672;4.206;2022-10-16T06:52:46;3.30;;;3.00;;
33170;SDS011;19535;50.672;4.206;2022-10-16T06:55:13;3.40;;;3.17;;
33170;SDS011;19535;50.672;4.206;2022-10-16T06:57:41;3.65;;;3.33;;
33170;SDS011;19535;50.672;4.206;2022-10-16T07:00:08;3.13;;;2.92;;
33170;SDS011;19535;50.672;4.206;2022-10-16T07:02:35;3.20;;;3.00;;
33170;SDS011;19535;50.672;4.206;2022-10-16T07:05:01;3.30;;;3.10;;
33170;SDS011;19535;50.672;4.206;2022-10-16T07:07:28;3.65;;;3.35;;
33170;SDS011;19535;50.672;4.206;2022-10-16T07:09:55;3.05;;;2.85;;
33170;SDS011;19535;50.672;4.206;2022-10-16T07:12:22;3.15;;;2.85;;
33170;SDS011;19535;50.672;4.206;2022-10-16T07:14:49;2.92;;;2.72;;
33170;SDS011;19535;50.672;4.206;2022-10-16T07:17:18;2.58;;;2.47;;
33170;SDS011;19535;50.672;4.206;2022-10-16T07:19:45;2.72;;;2.53;;
33170;SDS011;19535;50.672;4.206;2022-10-16T07:22:11;2.70;;;2.50;;
33170;SDS011;19535;50.672;4.206;2022-10-16T07:24:38;2.30;;;2.20;;
33170;SDS011;19535;50.672;4.206;2022-10-16T07:27:05;2.70;;;2.50;;
33170;SDS011;19535;50.672;4.206;2022-10-16T07:29:32;2.90;;;2.70;;
33170;SDS011;19535;50.672;4.206;2022-10-16T07:31:58;2.60;;;2.40;;
33170;SDS011;19535;50.672;4.206;2022-10-16T07:34:25;2.63;;;2.42;;
33170;SDS011;19535;50.672;4.206;2022-10-16T07:36:52;3.00;;;2.80;;
33170;SDS011;19535;50.672;4.206;2022-10-16T07:39:19;2.78;;;2.58;;
33170;SDS011;19535;50.672;4.206;2022-10-16T07:41:46;2.55;;;2.42;;
33170;SDS011;19535;50.672;4.206;2022-10-16T07:44:13;2.97;;;2.78;;
33170;SDS011;19535;50.672;4.206;2022-10-16T07:46:42;2.90;;;2.70;;
33170;SDS011;19535;50.672;4.206;2022-10-16T07:49:09;2.53;;;2.33;;
33170;SDS011;19535;50.672;4.206;2022-10-16T07:51:35;2.50;;;2.40;;
33170;SDS011;19535;50.672;4.206;2022-10-16T07:54:04;3.10;;;2.50;;
33170;SDS011;19535;50.672;4.206;2022-10-16T07:56:32;2.40;;;2.30;;
33170;SDS011;19535;50.672;4.206;2022-10-16T07:58:59;2.80;;;2.60;;
33170;SDS011;19535;50.672;4.206;2022-10-16T08:01:25;2.65;;;2.45;;
33170;SDS011;19535;50.672;4.206;2022-10-16T08:03:52;2.58;;;2.47;;
33170;SDS011;19535;50.672;4.206;2022-10-16T08:06:20;2.28;;;2.10;;
33170;SDS011;19535;50.672;4.206;2022-10-16T08:08:53;2.58;;;2.38;;
33170;SDS011;19535;50.672;4.206;2022-10-16T08:11:20;2.20;;;2.10;;
33170;SDS011;19535;50.672;4.206;2022-10-16T08:13:47;2.08;;;1.98;;
33170;SDS011;19535;50.672;4.206;2022-10-16T08:16:13;2.20;;;2.08;;
33170;SDS011;19535;50.672;4.206;2022-10-16T08:18:40;2.10;;;2.00;;
33170;SDS011;19535;50.672;4.206;2022-10-16T08:21:15;2.50;;;2.40;;
33170;SDS011;19535;50.672;4.206;2022-10-16T08:23:46;2.17;;;2.08;;
33170;SDS011;19535;50.672;4.206;2022-10-16T08:26:22;2.22;;;2.13;;
33170;SDS011;19535;50.672;4.206;2022-10-16T08:28:49;2.20;;;2.10;;
33170;SDS011;19535;50.672;4.206;2022-10-16T08:31:17;2.30;;;2.20;;
33170;SDS011;19535;50.672;4.206;2022-10-16T08:33:44;2.10;;;2.00;;
33170;SDS011;19535;50.672;4.206;2022-10-16T08:36:13;2.63;;;2.42;;
33170;SDS011;19535;50.672;4.206;2022-10-16T08:38:41;2.42;;;2.22;;
33170;SDS011;19535;50.672;4.206;2022-10-16T08:49:50;2.28;;;2.08;;
33170;SDS011;19535;50.672;4.206;2022-10-16T08:52:25;2.40;;;2.20;;
33170;SDS011;19535;50.672;4.206;2022-10-16T08:54:55;3.67;;;1.90;;
33170;SDS011;19535;50.672;4.206;2022-10-16T08:57:24;2.72;;;1.65;;
33170;SDS011;19535;50.672;4.206;2022-10-16T08:59:52;2.10;;;1.90;;
33170;SDS011;19535;50.672;4.206;2022-10-16T09:21:24;1.60;;;1.50;;
33170;SDS011;19535;50.672;4.206;2022-10-16T09:23:53;1.75;;;1.50;;
33170;SDS011;19535;50.672;4.206;2022-10-16T09:28:54;2.15;;;1.95;;
33170;SDS011;19535;50.672;4.206;2022-10-16T09:31:21;2.53;;;1.80;;
33170;SDS011;19535;50.672;4.206;2022-10-16T09:33:51;2.28;;;1.67;;
33170;SDS011;19535;50.672;4.206;2022-10-16T09:36:20;2.03;;;1.45;;
33170;SDS011;19535;50.672;4.206;2022-10-16T09:38:48;1.85;;;1.67;;
33170;SDS011;19535;50.672;4.206;2022-10-16T09:41:20;2.85;;;1.90;;
33170;SDS011;19535;50.672;4.206;2022-10-16T09:43:54;2.67;;;1.83;;
33170;SDS011;19535;50.672;4.206;2022-10-16T09:46:29;2.47;;;1.70;;
33170;SDS011;19535;50.672;4.206;2022-10-16T09:49:05;3.88;;;2.50;;
33170;SDS011;19535;50.672;4.206;2022-10-16T09:51:46;2.70;;;2.30;;
33170;SDS011;19535;50.672;4.206;2022-10-16T09:54:18;2.80;;;2.00;;
33170;SDS011;19535;50.672;4.206;2022-10-16T09:56:46;2.53;;;2.00;;
33170;SDS011;19535;50.672;4.206;2022-10-16T09:59:18;2.85;;;2.05;;
33170;SDS011;19535;50.672;4.206;2022-10-16T10:01:48;2.28;;;1.90;;
33170;SDS011;19535;50.672;4.206;2022-10-16T10:04:24;1.85;;;1.63;;
33170;SDS011;19535;50.672;4.206;2022-10-16T10:06:55;2.05;;;1.70;;
33170;SDS011;19535;50.672;4.206;2022-10-16T10:09:23;2.15;;;1.92;;
33170;SDS011;19535;50.672;4.206;2022-10-16T10:11:52;3.83;;;1.70;;
33170;SDS011;19535;50.672;4.206;2022-10-16T10:16:49;2.15;;;1.75;;
33170;SDS011;19535;50.672;4.206;2022-10-16T10:19:20;2.30;;;1.77;;
33170;SDS011;19535;50.672;4.206;2022-10-16T10:21:48;2.03;;;1.85;;
33170;SDS011;19535;50.672;4.206;2022-10-16T10:24:17;5.97;;;1.92;;
33170;SDS011;19535;50.672;4.206;2022-10-16T10:27:07;1.77;;;1.58;;
33170;SDS011;19535;50.672;4.206;2022-10-16T10:29:47;20.52;;;18.45;;
33170;SDS011;19535;50.672;4.206;2022-10-16T10:32:33;22.92;;;20.52;;
33170;SDS011;19535;50.672;4.206;2022-10-16T10:35:17;17.83;;;15.40;;
33170;SDS011;19535;50.672;4.206;2022-10-16T10:40:40;13.50;;;12.23;;
33170;SDS011;19535;50.672;4.206;2022-10-16T10:45:52;11.00;;;10.02;;
33170;SDS011;19535;50.672;4.206;2022-10-16T10:51:13;10.23;;;9.23;;
33170;SDS011;19535;50.672;4.206;2022-10-16T10:54:00;9.95;;;9.15;;
33170;SDS011;19535;50.672;4.206;2022-10-16T11:02:23;9.55;;;8.75;;
33170;SDS011;19535;50.672;4.206;2022-10-16T11:07:49;8.70;;;8.00;;
33170;SDS011;19535;50.672;4.206;2022-10-16T11:10:28;8.20;;;7.50;;
33170;SDS011;19535;50.672;4.206;2022-10-16T11:13:40;8.50;;;7.70;;
33170;SDS011;19535;50.672;4.206;2022-10-16T11:21:19;7.53;;;6.90;;
33170;SDS011;19535;50.672;4.206;2022-10-16T11:23:59;7.53;;;6.82;;
33170;SDS011;19535;50.672;4.206;2022-10-16T11:26:35;7.13;;;6.53;;
33170;SDS011;19535;50.672;4.206;2022-10-16T11:29:03;7.00;;;6.40;;
33170;SDS011;19535;50.672;4.206;2022-10-16T11:31:36;6.88;;;6.28;;
33170;SDS011;19535;50.672;4.206;2022-10-16T11:36:53;6.80;;;6.10;;
33170;SDS011;19535;50.672;4.206;2022-10-16T11:39:35;7.13;;;6.53;;
33170;SDS011;19535;50.672;4.206;2022-10-16T11:47:22;6.88;;;6.20;;
33170;SDS011;19535;50.672;4.206;2022-10-16T11:53:01;9.02;;;7.05;;
33170;SDS011;19535;50.672;4.206;2022-10-16T11:58:03;7.30;;;6.60;;
33170;SDS011;19535;50.672;4.206;2022-10-16T12:00:56;9.88;;;6.20;;
33170;SDS011;19535;50.672;4.206;2022-10-16T12:03:31;7.65;;;6.28;;
33170;SDS011;19535;50.672;4.206;2022-10-16T12:06:49;6.50;;;5.90;;
33170;SDS011;19535;50.672;4.206;2022-10-16T12:09:11;6.13;;;5.53;;
33170;SDS011;19535;50.672;4.206;2022-10-16T12:11:46;6.30;;;5.80;;
33170;SDS011;19535;50.672;4.206;2022-10-16T12:16:56;5.60;;;5.15;;
33170;SDS011;19535;50.672;4.206;2022-10-16T12:19:27;6.05;;;5.53;;
33170;SDS011;19535;50.672;4.206;2022-10-16T12:21:57;5.68;;;5.18;;
33170;SDS011;19535;50.672;4.206;2022-10-16T12:24:35;5.22;;;4.82;;
33170;SDS011;19535;50.672;4.206;2022-10-16T12:27:05;5.72;;;5.22;;
33170;SDS011;19535;50.672;4.206;2022-10-16T12:29:36;5.75;;;5.30;;
33170;SDS011;19535;50.672;4.206;2022-10-16T12:32:19;6.82;;;4.85;;
33170;SDS011;19535;50.672;4.206;2022-10-16T12:35:24;5.35;;;4.95;;
33170;SDS011;19535;50.672;4.206;2022-10-16T12:37:54;5.05;;;4.65;;
33170;SDS011;19535;50.672;4.206;2022-10-16T12:41:07;5.50;;;5.00;;
33170;SDS011;19535;50.672;4.206;2022-10-16T12:43:39;6.93;;;5.30;;
33170;SDS011;19535;50.672;4.206;2022-10-16T12:48:37;5.68;;;5.18;;
33170;SDS011;19535;50.672;4.206;2022-10-16T12:59:04;5.28;;;4.88;;
33170;SDS011;19535;50.672;4.206;2022-10-16T13:01:48;4.45;;;4.10;;
33170;SDS011;19535;50.672;4.206;2022-10-16T13:07:18;4.68;;;4.32;;
33170;SDS011;19535;50.672;4.206;2022-10-16T13:28:34;4.38;;;3.97;;
33170;SDS011;19535;50.672;4.206;2022-10-16T13:31:02;5.32;;;4.30;;
33170;SDS011;19535;50.672;4.206;2022-10-16T13:33:36;4.00;;;3.70;;
33170;SDS011;19535;50.672;4.206;2022-10-16T13:36:05;4.72;;;4.32;;
33170;SDS011;19535;50.672;4.206;2022-10-16T13:38:33;5.10;;;4.50;;
33170;SDS011;19535;50.672;4.206;2022-10-16T13:41:02;4.77;;;4.27;;
33170;SDS011;19535;50.672;4.206;2022-10-16T13:43:40;4.57;;;4.18;;
33170;SDS011;19535;50.672;4.206;2022-10-16T13:48:55;4.15;;;3.85;;
33170;SDS011;19535;50.672;4.206;2022-10-16T13:51:23;4.03;;;3.63;;
33170;SDS011;19535;50.672;4.206;2022-10-16T13:53:50;4.85;;;4.38;;
33170;SDS011;19535;50.672;4.206;2022-10-16T13:56:18;4.32;;;4.03;;
33170;SDS011;19535;50.672;4.206;2022-10-16T13:58:57;4.30;;;4.00;;
33170;SDS011;19535;50.672;4.206;2022-10-16T14:01:29;4.20;;;3.80;;
33170;SDS011;19535;50.672;4.206;2022-10-16T14:04:02;4.45;;;4.05;;
33170;SDS011;19535;50.672;4.206;2022-10-16T14:06:40;4.55;;;4.15;;
33170;SDS011;19535;50.672;4.206;2022-10-16T14:09:09;5.15;;;4.05;;
33170;SDS011;19535;50.672;4.206;2022-10-16T14:11:46;4.80;;;4.13;;
33170;SDS011;19535;50.672;4.206;2022-10-16T14:14:15;4.53;;;4.13;;
33170;SDS011;19535;50.672;4.206;2022-10-16T14:16:42;5.85;;;4.05;;
33170;SDS011;19535;50.672;4.206;2022-10-16T14:19:15;6.72;;;6.13;;
33170;SDS011;19535;50.672;4.206;2022-10-16T14:21:51;6.68;;;5.53;;
33170;SDS011;19535;50.672;4.206;2022-10-16T14:24:52;6.22;;;5.65;;
33170;SDS011;19535;50.672;4.206;2022-10-16T14:27:23;8.88;;;5.50;;
33170;SDS011;19535;50.672;4.206;2022-10-16T14:30:05;6.93;;;4.75;;
33170;SDS011;19535;50.672;4.206;2022-10-16T14:32:53;6.78;;;5.32;;
33170;SDS011;19535;50.672;4.206;2022-10-16T14:35:32;5.45;;;4.45;;
33170;SDS011;19535;50.672;4.206;2022-10-16T14:38:03;6.45;;;4.45;;
33170;SDS011;19535;50.672;4.206;2022-10-16T14:40:35;6.20;;;4.47;;
33170;SDS011;19535;50.672;4.206;2022-10-16T14:43:03;6.93;;;4.43;;
33170;SDS011;19535;50.672;4.206;2022-10-16T14:45:33;5.15;;;4.38;;
33170;SDS011;19535;50.672;4.206;2022-10-16T14:48:05;5.63;;;4.00;;
33170;SDS011;19535;50.672;4.206;2022-10-16T14:50:45;7.43;;;4.25;;
33170;SDS011;19535;50.672;4.206;2022-10-16T14:53:12;5.13;;;4.18;;
33170;SDS011;19535;50.672;4.206;2022-10-16T14:55:39;7.38;;;4.07;;
33170;SDS011;19535;50.672;4.206;2022-10-16T14:58:20;6.47;;;4.55;;
33170;SDS011;19535;50.672;4.206;2022-10-16T15:00:49;7.18;;;4.47;;
33170;SDS011;19535;50.672;4.206;2022-10-16T15:03:15;4.80;;;3.85;;
33170;SDS011;19535;50.672;4.206;2022-10-16T15:05:42;6.03;;;4.15;;
33170;SDS011;19535;50.672;4.206;2022-10-16T15:08:09;5.38;;;3.70;;
33170;SDS011;19535;50.672;4.206;2022-10-16T15:10:40;7.68;;;4.35;;
33170;SDS011;19535;50.672;4.206;2022-10-16T15:13:10;6.88;;;4.30;;
33170;SDS011;19535;50.672;4.206;2022-10-16T15:15:42;5.63;;;4.45;;
33170;SDS011;19535;50.672;4.206;2022-10-16T15:18:10;4.55;;;4.03;;
33170;SDS011;19535;50.672;4.206;2022-10-16T15:20:38;6.82;;;4.25;;
33170;SDS011;19535;50.672;4.206;2022-10-16T15:23:14;8.82;;;4.50;;
33170;SDS011;19535;50.672;4.206;2022-10-16T15:25:45;6.00;;;4.25;;
33170;SDS011;19535;50.672;4.206;2022-10-16T15:30:40;7.40;;;4.07;;
33170;SDS011;19535;50.672;4.206;2022-10-16T15:33:28;7.35;;;4.32;;
33170;SDS011;19535;50.672;4.206;2022-10-16T15:36:04;6.13;;;3.58;;
33170;SDS011;19535;50.672;4.206;2022-10-16T15:38:31;11.80;;;4.30;;
33170;SDS011;19535;50.672;4.206;2022-10-16T15:40:57;6.05;;;3.60;;
33170;SDS011;19535;50.672;4.206;2022-10-16T15:43:24;7.88;;;3.22;;
33170;SDS011;19535;50.672;4.206;2022-10-16T15:46:12;9.02;;;4.05;;
33170;SDS011;19535;50.672;4.206;2022-10-16T15:48:40;8.60;;;4.40;;
33170;SDS011;19535;50.672;4.206;2022-10-16T15:51:07;9.68;;;5.03;;
33170;SDS011;19535;50.672;4.206;2022-10-16T15:53:34;12.93;;;5.28;;
33170;SDS011;19535;50.672;4.206;2022-10-16T15:56:02;8.50;;;4.90;;
33170;SDS011;19535;50.672;4.206;2022-10-16T15:58:32;10.10;;;4.78;;
33170;SDS011;19535;50.672;4.206;2022-10-16T16:00:59;10.05;;;4.97;;
33170;SDS011;19535;50.672;4.206;2022-10-16T16:03:27;9.38;;;5.05;;
33170;SDS011;19535;50.672;4.206;2022-10-16T16:05:55;12.18;;;5.50;;
33170;SDS011;19535;50.672;4.206;2022-10-16T16:08:22;10.20;;;5.65;;
33170;SDS011;19535;50.672;4.206;2022-10-16T16:11:02;9.02;;;4.72;;
33170;SDS011;19535;50.672;4.206;2022-10-16T16:13:30;9.82;;;4.78;;
33170;SDS011;19535;50.672;4.206;2022-10-16T16:15:57;12.30;;;5.65;;
33170;SDS011;19535;50.672;4.206;2022-10-16T16:18:25;9.02;;;4.80;;
33170;SDS011;19535;50.672;4.206;2022-10-16T16:20:52;9.13;;;4.90;;
33170;SDS011;19535;50.672;4.206;2022-10-16T16:23:19;10.05;;;5.07;;
33170;SDS011;19535;50.672;4.206;2022-10-16T16:26:01;8.02;;;4.85;;
33170;SDS011;19535;50.672;4.206;2022-10-16T16:28:42;10.13;;;4.63;;
33170;SDS011;19535;50.672;4.206;2022-10-16T16:31:09;9.18;;;4.75;;
33170;SDS011;19535;50.672;4.206;2022-10-16T16:33:36;9.18;;;4.65;;
33170;SDS011;19535;50.672;4.206;2022-10-16T16:36:03;9.18;;;4.70;;
33170;SDS011;19535;50.672;4.206;2022-10-16T16:38:39;10.07;;;4.70;;
33170;SDS011;19535;50.672;4.206;2022-10-16T16:44:03;7.25;;;4.30;;
33170;SDS011;19535;50.672;4.206;2022-10-16T16:46:32;14.07;;;4.85;;
33170;SDS011;19535;50.672;4.206;2022-10-16T16:49:00;11.90;;;4.88;;
33170;SDS011;19535;50.672;4.206;2022-10-16T16:51:27;8.90;;;4.35;;
33170;SDS011;19535;50.672;4.206;2022-10-16T16:53:54;7.95;;;4.50;;
33170;SDS011;19535;50.672;4.206;2022-10-16T16:56:30;7.18;;;3.70;;
33170;SDS011;19535;50.672;4.206;2022-10-16T16:58:57;9.77;;;4.70;;
33170;SDS011;19535;50.672;4.206;2022-10-16T17:01:25;27.92;;;24.98;;
33170;SDS011;19535;50.672;4.206;2022-10-16T17:03:54;45.00;;;40.30;;
33170;SDS011;19535;50.672;4.206;2022-10-16T17:06:23;41.65;;;37.10;;